createdAt,value
2018-04-24T00:00:29.054Z,70.18
2018-04-24T00:03:34.265Z,70.16
2018-04-24T00:06:39.990Z,70.26
2018-04-24T00:09:45.262Z,70.29
2018-04-24T00:12:50.060Z,70.22
2018-04-24T00:15:55.011Z,70.33
2018-04-24T00:19:01.312Z,70.32
2018-04-24T00:22:07.361Z,70.32
2018-04-24T00:25:13.372Z,70.40
2018-04-24T00:28:19.471Z,70.29
2018-04-24T00:31:25.317Z,70.49
2018-04-24T00:34:31.456Z,70.48
2018-04-24T00:37:37.385Z,70.61
2018-04-24T00:40:43.596Z,70.63
2018-04-24T00:43:49.475Z,70.63
2018-04-24T00:46:55.471Z,70.65
2018-04-24T00:50:00.667Z,70.63
2018-04-24T00:53:17.917Z,70.61
2018-04-24T00:56:23.573Z,70.54
2018-04-24T00:59:29.410Z,70.76
2018-04-24T01:02:34.642Z,70.73
2018-04-24T01:05:39.545Z,70.98
2018-04-24T01:08:45.554Z,71.03
2018-04-24T01:11:51.554Z,71.14
2018-04-24T01:14:57.371Z,71.34
2018-04-24T01:18:02.575Z,71.39
2018-04-24T01:21:07.759Z,71.38
2018-04-24T01:24:13.350Z,71.50
2018-04-24T01:27:19.472Z,71.60
2018-04-24T01:30:25.481Z,71.49
2018-04-24T01:33:31.620Z,71.48
2018-04-24T01:36:37.670Z,71.22
2018-04-24T01:39:44.722Z,71.23
2018-04-24T01:42:50.641Z,71.38
2018-04-24T01:45:55.950Z,71.46
2018-04-24T01:49:01.819Z,71.56
2018-04-24T01:52:06.802Z,71.65
2018-04-24T01:55:11.760Z,71.86
2018-04-24T01:58:17.416Z,71.76
2018-04-24T02:01:22.342Z,71.84
2018-04-24T02:04:28.320Z,71.99
2018-04-24T02:07:33.623Z,72.04
2018-04-24T02:10:38.889Z,71.98
2018-04-24T02:13:44.860Z,71.92
2018-04-24T02:16:50.991Z,72.03
2018-04-24T02:19:56.906Z,72.08
2018-04-24T02:23:02.831Z,72.11
2018-04-24T02:26:08.104Z,72.09
2018-04-24T02:29:13.361Z,72.21
2018-04-24T02:32:18.405Z,72.32
2018-04-24T02:35:23.680Z,72.26
2018-04-24T02:38:29.624Z,72.26
2018-04-24T02:41:35.441Z,72.27
2018-04-24T02:44:40.706Z,72.33
2018-04-24T02:47:47.917Z,72.32
2018-04-24T02:50:53.796Z,72.33
2018-04-24T02:53:59.900Z,72.47
2018-04-24T02:57:05.988Z,72.43
2018-04-24T03:00:11.926Z,72.56
2018-04-24T03:03:18.134Z,72.52
2018-04-24T03:06:24.116Z,72.64
2018-04-24T03:09:29.180Z,72.62
2018-04-24T03:12:34.473Z,72.69
2018-04-24T03:15:39.740Z,72.62
2018-04-24T03:18:44.733Z,72.62
2018-04-24T03:21:50.819Z,72.73
2018-04-24T03:24:56.879Z,72.69
2018-04-24T03:28:02.901Z,72.67
2018-04-24T03:31:08.516Z,72.76
2018-04-24T03:34:14.629Z,72.78
2018-04-24T03:37:20.743Z,72.81
2018-04-24T03:40:26.352Z,72.81
2018-04-24T03:43:32.482Z,72.83
2018-04-24T03:46:38.554Z,72.78
2018-04-24T03:49:43.833Z,72.70
2018-04-24T03:52:49.725Z,72.74
2018-04-24T03:55:54.998Z,72.72
2018-04-24T03:59:01.284Z,72.76
2018-04-24T04:02:07.376Z,72.71
2018-04-24T04:05:13.557Z,72.71
2018-04-24T04:08:19.608Z,72.73
2018-04-24T04:11:25.044Z,72.74
2018-04-24T04:14:30.308Z,72.71
2018-04-24T04:17:48.764Z,72.78
2018-04-24T04:21:05.297Z,72.90
2018-04-24T04:27:52.065Z,73.03
2018-04-24T04:30:58.028Z,73.02
2018-04-24T04:34:03.629Z,72.97
2018-04-24T04:37:10.261Z,73.11
2018-04-24T04:40:16.110Z,73.16
2018-04-24T04:43:21.936Z,73.16
2018-04-24T04:46:27.901Z,73.35
2018-04-24T04:49:33.723Z,73.40
2018-04-24T04:52:39.921Z,73.32
2018-04-24T04:55:45.825Z,73.22
2018-04-24T04:58:51.701Z,73.55
2018-04-24T05:01:57.890Z,73.40
2018-04-24T05:05:03.823Z,73.93
2018-04-24T05:08:09.732Z,73.76
2018-04-24T05:11:15.221Z,73.75
2018-04-24T05:14:21.407Z,74.00
2018-04-24T05:17:27.664Z,74.38
2018-04-24T05:20:33.798Z,74.29
2018-04-24T05:23:39.708Z,74.60
2018-04-24T05:26:44.994Z,74.61
2018-04-24T05:29:51.180Z,74.68
2018-04-24T05:32:57.149Z,74.32
2018-04-24T05:36:03.125Z,74.55
2018-04-24T05:39:08.880Z,74.37
2018-04-24T05:42:14.161Z,74.50
2018-04-24T05:45:19.467Z,74.42
2018-04-24T05:48:25.309Z,75.05
2018-04-24T05:51:30.003Z,74.61
2018-04-24T05:54:35.996Z,75.00
2018-04-24T05:57:42.237Z,75.11
2018-04-24T06:00:48.440Z,75.13
2018-04-24T06:03:54.267Z,74.92
2018-04-24T06:06:59.529Z,75.27
2018-04-24T06:10:05.309Z,75.24
2018-04-24T06:13:11.001Z,75.78
2018-04-24T06:16:16.277Z,74.95
2018-04-24T06:19:22.200Z,75.60
2018-04-24T06:22:28.483Z,75.13
2018-04-24T06:25:33.465Z,75.02
2018-04-24T06:28:39.671Z,75.09
2018-04-24T06:31:45.866Z,75.21
2018-04-24T06:34:51.137Z,75.59
2018-04-24T06:37:56.411Z,76.11
2018-04-24T06:41:02.213Z,75.27
2018-04-24T06:44:07.504Z,75.77
2018-04-24T06:47:12.775Z,75.91
2018-04-24T06:50:18.038Z,75.96
2018-04-24T06:53:23.323Z,75.68
2018-04-24T06:56:28.598Z,75.76
2018-04-24T06:59:34.606Z,75.90
2018-04-24T07:02:40.462Z,75.94
2018-04-24T07:05:46.661Z,75.81
2018-04-24T07:08:51.925Z,75.82
2018-04-24T07:11:58.211Z,75.46
2018-04-24T07:15:04.112Z,75.89
2018-04-24T07:18:10.198Z,76.07
2018-04-24T07:21:15.901Z,75.71
2018-04-24T07:24:22.096Z,75.79
2018-04-24T07:27:27.434Z,75.75
2018-04-24T07:30:33.335Z,75.71
2018-04-24T07:33:38.621Z,75.96
2018-04-24T07:36:43.916Z,76.02
2018-04-24T07:39:49.202Z,76.01
2018-04-24T07:42:54.478Z,75.98
2018-04-24T07:45:59.760Z,76.01
2018-04-24T07:49:05.029Z,76.13
2018-04-24T07:52:11.265Z,76.18
2018-04-24T07:55:17.555Z,76.10
2018-04-24T07:58:23.449Z,76.05
2018-04-24T08:01:29.645Z,75.97
2018-04-24T08:04:35.837Z,76.14
2018-04-24T08:07:41.205Z,76.27
2018-04-24T08:10:46.802Z,76.21
2018-04-24T08:13:52.081Z,76.65
2018-04-24T08:16:58.179Z,76.45
2018-04-24T08:20:03.852Z,76.49
2018-04-24T08:23:09.897Z,76.67
2018-04-24T08:26:15.722Z,76.49
2018-04-24T08:29:21.715Z,76.47
2018-04-24T08:32:27.974Z,76.44
2018-04-24T08:35:34.185Z,76.52
2018-04-24T08:38:40.301Z,76.51
2018-04-24T08:41:46.370Z,76.57
2018-04-24T08:44:53.591Z,76.85
2018-04-24T08:47:59.433Z,76.66
2018-04-24T08:51:06.759Z,76.43
2018-04-24T08:54:12.552Z,76.60
2018-04-24T08:57:18.769Z,76.46
2018-04-24T09:00:24.078Z,76.59
2018-04-24T09:03:30.902Z,76.08
2018-04-24T09:06:37.112Z,76.37
2018-04-24T09:09:42.396Z,76.41
2018-04-24T09:12:47.669Z,76.88
2018-04-24T09:15:52.953Z,76.79
2018-04-24T09:18:58.252Z,76.29
2018-04-24T09:22:04.449Z,76.56
2018-04-24T09:25:09.495Z,77.38
2018-04-24T09:28:14.782Z,76.92
2018-04-24T09:31:21.781Z,77.13
2018-04-24T09:34:27.620Z,76.96
2018-04-24T09:37:32.885Z,76.83
2018-04-24T09:40:38.193Z,76.96
2018-04-24T09:43:43.473Z,77.59
2018-04-24T09:46:48.780Z,76.94
2018-04-24T09:49:54.968Z,76.98
2018-04-24T09:53:00.242Z,76.83
2018-04-24T09:56:05.533Z,77.13
2018-04-24T09:59:10.541Z,76.95
2018-04-24T10:02:16.393Z,76.96
2018-04-24T10:05:22.712Z,77.13
2018-04-24T10:08:27.740Z,77.26
2018-04-24T10:11:33.964Z,77.17
2018-04-24T10:14:39.232Z,77.38
2018-04-24T10:17:44.937Z,77.35
2018-04-24T10:20:50.210Z,77.45
2018-04-24T10:23:55.480Z,77.37
2018-04-24T10:27:02.615Z,77.53
2018-04-24T10:30:07.908Z,77.25
2018-04-24T10:33:13.181Z,77.17
2018-04-24T10:36:18.461Z,77.73
2018-04-24T10:39:23.721Z,77.26
2018-04-24T10:42:29.818Z,77.37
2018-04-24T10:45:36.004Z,77.57
2018-04-24T10:48:42.110Z,77.41
2018-04-24T10:51:49.265Z,77.63
2018-04-24T10:54:54.757Z,77.53
2018-04-24T10:58:00.039Z,77.70
2018-04-24T11:01:05.036Z,77.30
2018-04-24T11:04:10.053Z,77.38
2018-04-24T11:07:15.342Z,77.52
2018-04-24T11:10:20.603Z,77.75
2018-04-24T11:13:26.525Z,77.63
2018-04-24T11:16:31.806Z,78.19
2018-04-24T11:19:37.992Z,78.05
2018-04-24T11:22:43.844Z,78.44
2018-04-24T11:25:49.993Z,78.33
2018-04-24T11:28:56.186Z,78.63
2018-04-24T11:32:02.288Z,78.32
2018-04-24T11:35:08.209Z,78.21
2018-04-24T11:38:14.397Z,78.57
2018-04-24T11:41:19.718Z,78.81
2018-04-24T11:44:25.182Z,78.82
2018-04-24T11:47:31.113Z,78.75
2018-04-24T11:50:37.289Z,79.10
2018-04-24T11:53:43.389Z,79.35
2018-04-24T11:56:49.385Z,79.72
2018-04-24T11:59:54.662Z,79.53
2018-04-24T12:02:59.928Z,79.48
2018-04-24T12:06:04.868Z,79.47
2018-04-24T12:09:10.756Z,79.42
2018-04-24T12:12:16.023Z,78.97
2018-04-24T12:15:22.309Z,78.97
2018-04-24T12:18:28.146Z,78.98
2018-04-24T12:21:34.329Z,79.24
2018-04-24T12:24:39.597Z,79.10
2018-04-24T12:27:45.805Z,78.92
2018-04-24T12:30:51.080Z,79.12
2018-04-24T12:33:56.336Z,78.90
2018-04-24T12:37:01.604Z,78.86
2018-04-24T12:40:07.816Z,78.93
2018-04-24T12:43:13.081Z,79.07
2018-04-24T12:46:18.783Z,78.89
2018-04-24T12:49:24.052Z,78.96
2018-04-24T12:52:29.309Z,79.08
2018-04-24T12:55:34.618Z,79.27
2018-04-24T12:58:40.312Z,79.16
2018-04-24T13:01:46.201Z,79.24
2018-04-24T13:04:52.085Z,79.08
2018-04-24T13:07:57.956Z,78.83
2018-04-24T13:11:03.972Z,78.68
2018-04-24T13:14:09.966Z,78.62
2018-04-24T13:17:15.237Z,78.31
2018-04-24T13:20:21.418Z,78.37
2018-04-24T13:23:27.053Z,78.09
2018-04-24T13:26:33.276Z,77.73
2018-04-24T13:29:39.165Z,77.39
2018-04-24T13:32:45.268Z,77.13
2018-04-24T13:35:51.495Z,77.10
2018-04-24T13:38:57.637Z,76.74
2018-04-24T13:42:03.796Z,76.74
2018-04-24T13:45:09.717Z,76.41
2018-04-24T13:48:15.613Z,76.43
2018-04-24T13:51:21.705Z,76.14
2018-04-24T13:54:27.693Z,76.54
2018-04-24T13:57:33.901Z,76.20
2018-04-24T14:00:39.213Z,76.31
2018-04-24T14:03:45.990Z,76.06
2018-04-24T14:06:51.267Z,76.18
2018-04-24T14:09:57.469Z,76.34
2018-04-24T14:13:03.823Z,76.40
2018-04-24T14:16:09.776Z,76.12
2018-04-24T14:19:15.047Z,76.20
2018-04-24T14:22:20.433Z,76.15
2018-04-24T14:25:25.705Z,76.31
2018-04-24T14:28:31.901Z,75.92
2018-04-24T14:31:37.945Z,75.60
2018-04-24T14:34:43.688Z,76.00
2018-04-24T14:37:48.962Z,75.58
2018-04-24T14:40:54.233Z,75.34
2018-04-24T14:43:59.505Z,75.57
2018-04-24T14:47:04.449Z,75.40
2018-04-24T14:50:09.782Z,75.68
2018-04-24T14:53:15.694Z,75.74
2018-04-24T14:56:21.875Z,75.86
2018-04-24T14:59:28.098Z,75.85
2018-04-24T15:02:34.284Z,75.99
2018-04-24T15:05:40.501Z,75.97
2018-04-24T15:08:46.574Z,76.01
2018-04-24T15:11:52.778Z,76.05
2018-04-24T15:14:58.049Z,76.12
2018-04-24T15:18:03.377Z,76.13
2018-04-24T15:21:09.565Z,76.08
2018-04-24T15:24:15.559Z,76.34
2018-04-24T15:27:20.848Z,76.14
2018-04-24T15:30:26.934Z,76.29
2018-04-24T15:33:33.079Z,76.28
2018-04-24T15:36:38.965Z,76.29
2018-04-24T15:39:45.138Z,75.99
2018-04-24T15:42:51.133Z,76.00
2018-04-24T15:45:57.318Z,75.93
2018-04-24T15:49:03.409Z,75.94
2018-04-24T15:52:09.313Z,75.89
2018-04-24T15:55:15.496Z,75.97
2018-04-24T15:58:21.487Z,75.72
2018-04-24T16:01:27.371Z,75.86
2018-04-24T16:04:33.453Z,75.75
2018-04-24T16:07:39.560Z,75.50
2018-04-24T16:10:46.334Z,75.38
2018-04-24T16:13:51.695Z,75.17
2018-04-24T16:16:57.990Z,75.36
2018-04-24T16:20:03.257Z,75.09
2018-04-24T16:23:09.491Z,74.89
2018-04-24T16:26:14.819Z,74.96
2018-04-24T16:29:20.097Z,74.69
2018-04-24T16:32:26.159Z,74.67
2018-04-24T16:35:31.991Z,74.62
2018-04-24T16:38:37.962Z,74.62
2018-04-24T16:41:44.992Z,74.34
2018-04-24T16:44:50.261Z,74.42
2018-04-24T16:47:55.537Z,74.48
2018-04-24T16:51:00.836Z,74.25
2018-04-24T16:54:07.041Z,74.34
2018-04-24T16:57:12.312Z,74.25
2018-04-24T17:00:18.409Z,74.52
2018-04-24T17:03:23.681Z,74.47
2018-04-24T17:06:29.870Z,74.41
2018-04-24T17:09:35.135Z,74.30
2018-04-24T17:12:40.416Z,74.36
2018-04-24T17:15:45.746Z,74.29
2018-04-24T17:18:51.962Z,74.06
2018-04-24T17:21:56.997Z,73.98
2018-04-24T17:25:02.349Z,74.41
2018-04-24T17:28:08.585Z,74.47
2018-04-24T17:31:14.629Z,74.44
2018-04-24T17:34:20.630Z,74.36
2018-04-24T17:37:26.810Z,74.35
2018-04-24T17:40:32.117Z,74.25
2018-04-24T17:43:37.383Z,74.13
2018-04-24T17:46:42.658Z,74.25
2018-04-24T17:49:47.945Z,74.03
2018-04-24T17:52:54.196Z,74.13
2018-04-24T17:56:00.173Z,74.19
2018-04-24T17:59:05.477Z,74.18
2018-04-24T18:02:10.759Z,74.08
2018-04-24T18:05:16.079Z,73.63
2018-04-24T18:08:21.374Z,72.77
2018-04-24T18:11:26.667Z,72.44
2018-04-24T18:14:33.032Z,72.82
2018-04-24T18:17:38.349Z,72.98
2018-04-24T18:20:43.661Z,72.97
2018-04-24T18:23:50.352Z,72.86
2018-04-24T18:26:56.364Z,72.05
2018-04-24T18:30:02.173Z,72.87
2018-04-24T18:33:08.177Z,72.84
2018-04-24T18:36:14.278Z,71.93
2018-04-24T18:39:20.493Z,71.89
2018-04-24T18:42:25.811Z,72.68
2018-04-24T18:45:30.842Z,72.52
2018-04-24T18:48:36.186Z,72.63
2018-04-24T18:51:41.478Z,73.05
2018-04-24T18:54:47.477Z,72.59
2018-04-24T18:57:53.625Z,72.04
2018-04-24T19:00:58.911Z,71.73
2018-04-24T19:04:04.434Z,72.49
2018-04-24T19:07:10.649Z,71.73
2018-04-24T19:10:15.914Z,72.05
2018-04-24T19:13:21.271Z,72.05
2018-04-24T19:16:26.705Z,72.12
2018-04-24T19:19:31.650Z,72.01
2018-04-24T19:22:36.909Z,72.29
2018-04-24T19:25:43.483Z,72.81
2018-04-24T19:28:49.697Z,72.62
2018-04-24T19:32:00.789Z,72.61
2018-04-24T19:35:06.917Z,72.79
2018-04-24T19:38:13.062Z,72.04
2018-04-24T19:41:24.402Z,72.54
2018-04-24T19:44:30.217Z,72.72
2018-04-24T19:47:35.500Z,72.58
2018-04-24T19:50:41.918Z,73.04
2018-04-24T19:53:47.217Z,73.52
2018-04-24T19:56:52.705Z,73.31
2018-04-24T19:59:57.986Z,73.60
2018-04-24T20:03:02.977Z,73.33
2018-04-24T20:06:08.240Z,73.44
2018-04-24T20:09:13.547Z,73.83
2018-04-24T20:12:20.334Z,74.04
2018-04-24T20:15:26.349Z,73.76
2018-04-24T20:18:33.000Z,74.20
2018-04-24T20:21:39.203Z,74.43
2018-04-24T20:24:45.496Z,74.39
2018-04-24T20:27:50.761Z,74.50
2018-04-24T20:30:57.693Z,74.91
2018-04-24T20:34:03.574Z,74.92
2018-04-24T20:37:09.566Z,74.96
2018-04-24T20:40:15.341Z,74.94
2018-04-24T20:43:21.382Z,75.53
2018-04-24T20:46:28.581Z,75.97
2018-04-24T20:49:34.166Z,75.83
2018-04-24T20:52:40.461Z,76.01
2018-04-24T20:55:46.258Z,75.91
2018-04-24T20:58:52.269Z,76.03
2018-04-24T21:01:58.101Z,76.00
2018-04-24T21:05:03.749Z,75.73
2018-04-24T21:08:09.596Z,76.18
2018-04-24T21:11:15.776Z,76.01
2018-04-24T21:14:22.553Z,76.06
2018-04-24T21:17:28.666Z,75.97
2018-04-24T21:20:33.700Z,75.89
2018-04-24T21:23:39.897Z,76.07
2018-04-24T21:26:45.828Z,75.88
2018-04-24T21:29:51.902Z,76.18
2018-04-24T21:32:57.875Z,76.09
2018-04-24T21:36:03.145Z,76.03
2018-04-24T21:39:09.093Z,76.41
2018-04-24T21:42:14.365Z,76.46
2018-04-24T21:45:20.185Z,76.29
2018-04-24T21:48:25.458Z,77.08
2018-04-24T21:51:30.709Z,77.00
2018-04-24T21:54:36.594Z,76.52
2018-04-24T21:57:42.681Z,76.68
2018-04-24T22:00:48.778Z,76.65
2018-04-24T22:03:54.744Z,76.70
2018-04-24T22:07:00.005Z,76.68
2018-04-24T22:10:06.105Z,76.53
2018-04-24T22:13:12.312Z,76.80
2018-04-24T22:16:18.508Z,76.60
2018-04-24T22:19:23.769Z,76.78
2018-04-24T22:22:29.697Z,76.79
2018-04-24T22:25:35.745Z,76.70
2018-04-24T22:28:41.991Z,76.71
2018-04-24T22:31:47.950Z,76.82
2018-04-24T22:34:54.048Z,76.81
2018-04-24T22:37:59.948Z,76.93
2018-04-24T22:41:05.845Z,76.89
2018-04-24T22:44:11.893Z,76.95
2018-04-24T22:47:17.957Z,77.16
2018-04-24T22:50:23.933Z,77.02
2018-04-24T22:53:29.712Z,76.84
2018-04-24T22:56:35.889Z,77.13
2018-04-24T22:59:42.926Z,77.04
2018-04-24T23:02:48.212Z,77.08
2018-04-24T23:05:53.205Z,77.29
2018-04-24T23:08:58.177Z,77.20
2018-04-24T23:12:15.244Z,77.11
2018-04-24T23:15:38.030Z,77.39
2018-04-24T23:19:00.013Z,77.37
2018-04-24T23:22:16.608Z,77.36
2018-04-24T23:25:22.217Z,77.34
2018-04-24T23:28:27.929Z,77.45
2018-04-24T23:31:33.261Z,77.52
2018-04-24T23:34:37.966Z,77.56
2018-04-24T23:37:43.540Z,77.61
2018-04-24T23:40:49.801Z,77.60
2018-04-24T23:43:54.750Z,77.81
2018-04-24T23:46:59.703Z,77.67
2018-04-24T23:50:04.534Z,77.94
2018-04-24T23:53:10.414Z,77.86
2018-04-24T23:56:16.202Z,77.76
2018-04-24T23:59:21.479Z,77.81
